createdAt,value
2019-04-07T00:00:20.035Z,6.95
2019-04-07T00:01:20.613Z,6.90
2019-04-07T00:02:20.069Z,6.76
2019-04-07T00:03:20.009Z,6.71
2019-04-07T00:04:20.382Z,6.73
2019-04-07T00:05:20.703Z,6.71
2019-04-07T00:06:20.317Z,6.69
2019-04-07T00:07:20.084Z,6.69
2019-04-07T00:08:20.523Z,6.68
2019-04-07T00:09:20.532Z,6.81
2019-04-07T00:10:20.382Z,6.94
2019-04-07T00:11:19.911Z,7.29
2019-04-07T00:12:19.977Z,7.60
2019-04-07T00:13:19.891Z,7.62
2019-04-07T00:14:19.880Z,7.69
2019-04-07T00:15:19.865Z,7.72
2019-04-07T00:16:20.189Z,7.82
2019-04-07T00:17:20.585Z,7.71
2019-04-07T00:18:20.344Z,7.71
2019-04-07T00:19:19.819Z,7.53
2019-04-07T00:20:19.894Z,7.50
2019-04-07T00:21:19.797Z,7.32
2019-04-07T00:22:19.972Z,7.22
2019-04-07T00:23:20.056Z,7.12
2019-04-07T00:24:19.814Z,7.13
2019-04-07T00:25:19.826Z,6.91
2019-04-07T00:26:20.327Z,6.51
2019-04-07T00:27:20.098Z,6.18
2019-04-07T00:28:19.720Z,5.83
2019-04-07T00:29:19.711Z,5.73
2019-04-07T00:30:19.835Z,5.55
2019-04-07T00:31:20.471Z,5.43
2019-04-07T00:32:20.007Z,5.43
2019-04-07T00:33:19.660Z,5.46
2019-04-07T00:34:19.652Z,5.34
2019-04-07T00:35:26.935Z,5.43
2019-04-07T00:36:20.701Z,5.41
2019-04-07T00:37:19.614Z,5.40
2019-04-07T00:38:19.603Z,5.37
2019-04-07T00:39:20.700Z,5.43
2019-04-07T00:40:19.673Z,5.43
2019-04-07T00:41:19.979Z,5.45
2019-04-07T00:42:19.625Z,5.45
2019-04-07T00:43:19.925Z,5.60
2019-04-07T00:44:19.911Z,5.74
2019-04-07T00:45:19.523Z,5.82
2019-04-07T00:46:20.018Z,5.86
2019-04-07T00:47:19.593Z,5.81
2019-04-07T00:48:19.554Z,5.78
2019-04-07T00:49:19.475Z,5.74
2019-04-07T00:50:19.538Z,5.68
2019-04-07T00:51:20.082Z,5.71
2019-04-07T00:52:19.512Z,5.73
2019-04-07T00:53:19.993Z,5.75
2019-04-07T00:54:19.494Z,5.85
2019-04-07T00:55:19.408Z,5.82
2019-04-07T00:56:19.396Z,5.75
2019-04-07T00:57:19.871Z,5.68
2019-04-07T00:58:19.374Z,5.55
2019-04-07T00:59:19.688Z,5.57
2019-04-07T01:00:19.431Z,5.67
2019-04-07T01:01:19.643Z,5.70
2019-04-07T01:02:19.329Z,5.68
2019-04-07T01:03:19.503Z,5.75
2019-04-07T01:04:19.897Z,5.88
2019-04-07T01:05:19.298Z,6.16
2019-04-07T01:06:19.360Z,6.28
2019-04-07T01:07:19.276Z,6.40
2019-04-07T01:08:19.299Z,6.38
2019-04-07T01:09:19.857Z,6.56
2019-04-07T01:10:19.315Z,6.44
2019-04-07T01:11:20.019Z,6.48
2019-04-07T01:12:19.360Z,6.50
2019-04-07T01:13:19.846Z,6.61
2019-04-07T01:14:19.197Z,6.73
2019-04-07T01:15:19.753Z,6.83
2019-04-07T01:16:19.853Z,6.87
2019-04-07T01:17:19.187Z,6.95
2019-04-07T01:18:19.596Z,7.01
2019-04-07T01:19:19.143Z,7.05
2019-04-07T01:20:19.476Z,7.13
2019-04-07T01:21:19.245Z,7.23
2019-04-07T01:22:19.268Z,7.17
2019-04-07T01:23:19.360Z,7.23
2019-04-07T01:24:19.091Z,7.20
2019-04-07T01:25:19.300Z,7.16
2019-04-07T01:26:19.065Z,7.20
2019-04-07T01:27:19.243Z,6.97
2019-04-07T01:28:19.043Z,6.71
2019-04-07T01:29:19.032Z,6.59
2019-04-07T01:30:19.199Z,6.28
2019-04-07T01:31:19.652Z,6.18
2019-04-07T01:32:19.187Z,6.09
2019-04-07T01:33:19.047Z,5.89
2019-04-07T01:34:19.601Z,5.67
2019-04-07T01:35:18.958Z,5.64
2019-04-07T01:36:18.945Z,5.52
2019-04-07T01:37:19.001Z,5.37
2019-04-07T01:38:18.923Z,5.30
2019-04-07T01:39:19.451Z,5.27
2019-04-07T01:40:18.909Z,5.13
2019-04-07T01:41:18.887Z,5.04
2019-04-07T01:42:19.097Z,4.98
2019-04-07T01:43:18.941Z,4.77
2019-04-07T01:44:19.009Z,4.69
2019-04-07T01:45:18.843Z,4.64
2019-04-07T01:46:19.138Z,4.80
2019-04-07T01:47:19.015Z,4.70
2019-04-07T01:48:19.288Z,4.72
2019-04-07T01:49:19.403Z,4.70
2019-04-07T01:50:18.791Z,4.65
2019-04-07T01:51:18.778Z,4.70
2019-04-07T01:52:19.533Z,4.64
2019-04-07T01:53:19.150Z,4.57
2019-04-07T01:54:18.746Z,4.47
2019-04-07T01:55:19.081Z,4.37
2019-04-07T01:56:18.722Z,4.33
2019-04-07T01:57:18.711Z,4.29
2019-04-07T01:58:18.707Z,4.28
2019-04-07T01:59:18.690Z,4.16
2019-04-07T02:00:18.831Z,4.15
2019-04-07T02:01:18.749Z,4.14
2019-04-07T02:02:18.947Z,4.10
2019-04-07T02:03:18.770Z,4.07
2019-04-07T02:04:19.167Z,4.06
2019-04-07T02:05:18.796Z,4.07
2019-04-07T02:06:18.890Z,4.16
2019-04-07T02:07:18.653Z,4.16
2019-04-07T02:08:18.590Z,4.14
2019-04-07T02:09:18.675Z,4.14
2019-04-07T02:10:18.827Z,4.08
2019-04-07T02:11:18.776Z,4.15
2019-04-07T02:12:18.957Z,4.28
2019-04-07T02:13:18.716Z,4.26
2019-04-07T02:14:19.101Z,4.26
2019-04-07T02:15:18.585Z,4.44
2019-04-07T02:16:19.186Z,4.69
2019-04-07T02:17:18.488Z,4.77
2019-04-07T02:18:18.551Z,4.80
2019-04-07T02:19:19.049Z,4.99
2019-04-07T02:20:19.012Z,4.95
2019-04-07T02:21:18.440Z,4.94
2019-04-07T02:22:18.966Z,4.86
2019-04-07T02:23:18.417Z,4.83
2019-04-07T02:24:19.202Z,4.79
2019-04-07T02:25:18.397Z,4.51
2019-04-07T02:26:18.998Z,4.50
2019-04-07T02:27:18.373Z,4.36
2019-04-07T02:28:18.789Z,4.25
2019-04-07T02:29:18.349Z,4.07
2019-04-07T02:30:19.622Z,4.12
2019-04-07T02:31:19.144Z,3.94
2019-04-07T02:32:18.520Z,4.00
2019-04-07T02:33:18.306Z,3.98
2019-04-07T02:34:18.295Z,3.97
2019-04-07T02:35:18.284Z,4.00
2019-04-07T02:36:26.112Z,3.85
2019-04-07T02:37:19.434Z,3.94
2019-04-07T02:38:19.179Z,3.88
2019-04-07T02:39:18.315Z,3.85
2019-04-07T02:40:19.142Z,3.86
2019-04-07T02:41:18.222Z,3.75
2019-04-07T02:42:18.913Z,3.75
2019-04-07T02:43:19.320Z,3.75
2019-04-07T02:44:18.186Z,3.79
2019-04-07T02:45:18.171Z,3.79
2019-04-07T02:46:18.283Z,3.64
2019-04-07T02:47:18.201Z,3.75
2019-04-07T02:48:18.229Z,3.71
2019-04-07T02:49:18.131Z,3.71
2019-04-07T02:50:18.116Z,3.65
2019-04-07T02:51:18.143Z,3.85
2019-04-07T02:52:18.535Z,3.88
2019-04-07T02:53:18.082Z,3.85
2019-04-07T02:54:18.079Z,3.83
2019-04-07T02:55:18.397Z,3.83
2019-04-07T02:56:18.050Z,3.96
2019-04-07T02:57:18.959Z,3.94
2019-04-07T02:58:18.098Z,3.85
2019-04-07T02:59:18.016Z,3.88
2019-04-07T03:00:18.387Z,3.89
2019-04-07T03:01:18.163Z,3.88
2019-04-07T03:02:17.992Z,3.88
2019-04-07T03:03:18.781Z,3.86
2019-04-07T03:04:18.937Z,3.92
2019-04-07T03:05:18.027Z,3.83
2019-04-07T03:06:33.928Z,3.68
2019-04-07T03:07:19.984Z,3.65
2019-04-07T03:08:18.435Z,3.70
2019-04-07T03:09:18.736Z,3.64
2019-04-07T03:10:18.652Z,3.64
2019-04-07T03:11:18.131Z,3.68
2019-04-07T03:12:18.809Z,3.64
2019-04-07T03:13:17.941Z,3.60
2019-04-07T03:14:17.884Z,3.68
2019-04-07T03:15:17.849Z,3.76
2019-04-07T03:16:17.907Z,3.65
2019-04-07T03:17:17.825Z,3.61
2019-04-07T03:18:17.805Z,3.71
2019-04-07T03:19:17.840Z,3.62
2019-04-07T03:20:18.758Z,3.62
2019-04-07T03:21:17.792Z,3.79
2019-04-07T03:22:18.252Z,3.70
2019-04-07T03:23:17.750Z,3.80
2019-04-07T03:24:17.736Z,3.89
2019-04-07T03:25:18.481Z,3.83
2019-04-07T03:26:18.444Z,3.82
2019-04-07T03:27:17.947Z,3.65
2019-04-07T03:28:17.759Z,3.62
2019-04-07T03:29:18.233Z,3.42
2019-04-07T03:30:18.450Z,3.39
2019-04-07T03:31:19.513Z,3.39
2019-04-07T03:32:19.913Z,3.47
2019-04-07T03:33:21.173Z,3.70
2019-04-07T03:34:18.420Z,3.62
2019-04-07T03:35:20.145Z,3.76
2019-04-07T03:36:20.757Z,3.75
2019-04-07T03:37:33.433Z,3.68
2019-04-07T03:38:18.987Z,3.62
2019-04-07T03:39:17.577Z,3.64
2019-04-07T03:40:18.350Z,3.54
2019-04-07T03:41:18.249Z,3.58
2019-04-07T03:42:17.901Z,3.65
2019-04-07T03:43:17.759Z,3.68
2019-04-07T03:44:18.497Z,3.67
2019-04-07T03:45:17.500Z,3.64
2019-04-07T03:46:18.325Z,3.54
2019-04-07T03:47:18.391Z,3.57
2019-04-07T03:48:17.744Z,3.42
2019-04-07T03:49:17.454Z,3.49
2019-04-07T03:50:18.558Z,3.47
2019-04-07T03:51:17.430Z,3.43
2019-04-07T03:52:17.439Z,3.40
2019-04-07T03:53:17.953Z,3.33
2019-04-07T03:54:18.306Z,3.31
2019-04-07T03:55:17.391Z,3.09
2019-04-07T03:56:17.455Z,3.05
2019-04-07T03:57:17.378Z,2.89
2019-04-07T03:58:18.079Z,2.79
2019-04-07T03:59:18.211Z,2.77
2019-04-07T04:00:17.343Z,2.76
2019-04-07T04:01:17.577Z,2.79
2019-04-07T04:02:17.667Z,2.73
2019-04-07T04:03:17.302Z,2.76
2019-04-07T04:04:17.657Z,2.88
2019-04-07T04:05:17.277Z,2.94
2019-04-07T04:06:17.539Z,2.97
2019-04-07T04:07:27.593Z,2.91
2019-04-07T04:08:18.448Z,3.00
2019-04-07T04:09:17.459Z,2.97
2019-04-07T04:10:17.377Z,2.79
2019-04-07T04:11:18.180Z,2.71
2019-04-07T04:12:17.247Z,2.63
2019-04-07T04:13:17.179Z,2.61
2019-04-07T04:14:17.220Z,2.77
2019-04-07T04:15:18.281Z,3.03
2019-04-07T04:16:18.048Z,2.97
2019-04-07T04:17:17.141Z,3.16
2019-04-07T04:18:18.293Z,3.33
2019-04-07T04:19:17.205Z,3.44
2019-04-07T04:20:17.101Z,3.61
2019-04-07T04:21:17.731Z,3.67
2019-04-07T04:22:17.078Z,3.65
2019-04-07T04:23:17.811Z,3.52
2019-04-07T04:24:17.142Z,3.54
2019-04-07T04:25:17.275Z,3.47
2019-04-07T04:26:17.647Z,3.27
2019-04-07T04:27:17.060Z,3.33
2019-04-07T04:28:17.019Z,3.40
2019-04-07T04:29:17.091Z,3.39
2019-04-07T04:30:17.057Z,3.47
2019-04-07T04:31:17.983Z,3.53
2019-04-07T04:32:16.966Z,3.50
2019-04-07T04:33:17.866Z,3.53
2019-04-07T04:34:17.350Z,3.54
2019-04-07T04:35:17.034Z,3.53
2019-04-07T04:36:17.763Z,3.53
2019-04-07T04:37:33.295Z,3.60
2019-04-07T04:38:17.943Z,3.57
2019-04-07T04:39:18.624Z,3.49
2019-04-07T04:40:17.733Z,3.43
2019-04-07T04:41:16.940Z,3.49
2019-04-07T04:42:16.931Z,3.50
2019-04-07T04:43:17.762Z,3.43
2019-04-07T04:44:16.825Z,3.43
2019-04-07T04:45:17.036Z,3.31
2019-04-07T04:46:17.093Z,3.30
2019-04-07T04:47:16.892Z,3.23
2019-04-07T04:48:17.359Z,3.21
2019-04-07T04:49:17.039Z,3.33
2019-04-07T04:50:16.904Z,3.28
2019-04-07T04:51:17.558Z,3.40
2019-04-07T04:52:16.992Z,3.33
2019-04-07T04:53:17.127Z,3.58
2019-04-07T04:54:17.209Z,3.54
2019-04-07T04:55:16.799Z,3.54
2019-04-07T04:56:16.837Z,3.65
2019-04-07T04:57:17.679Z,3.70
2019-04-07T04:58:17.498Z,3.67
2019-04-07T04:59:16.680Z,3.72
2019-04-07T05:00:17.784Z,3.71
2019-04-07T05:01:17.484Z,3.61
2019-04-07T05:02:17.146Z,3.76
2019-04-07T05:03:18.007Z,3.76
2019-04-07T05:04:17.371Z,3.79
2019-04-07T05:05:16.978Z,3.83
2019-04-07T05:06:16.654Z,3.83
2019-04-07T05:07:16.828Z,3.85
2019-04-07T05:08:17.501Z,3.83
2019-04-07T05:09:16.545Z,3.90
2019-04-07T05:10:17.086Z,3.98
2019-04-07T05:11:16.730Z,3.94
2019-04-07T05:12:16.585Z,4.07
2019-04-07T05:13:16.986Z,4.22
2019-04-07T05:14:16.531Z,4.22
2019-04-07T05:15:16.470Z,4.18
2019-04-07T05:16:16.472Z,4.12
2019-04-07T05:17:16.455Z,4.04
2019-04-07T05:18:16.651Z,4.04
2019-04-07T05:19:16.432Z,4.01
2019-04-07T05:20:16.414Z,4.08
2019-04-07T05:21:16.403Z,4.06
2019-04-07T05:22:16.689Z,4.00
2019-04-07T05:23:16.379Z,4.06
2019-04-07T05:24:16.913Z,4.03
2019-04-07T05:25:16.368Z,4.00
2019-04-07T05:26:16.347Z,4.01
2019-04-07T05:27:16.497Z,3.92
2019-04-07T05:28:16.617Z,3.96
2019-04-07T05:29:17.040Z,3.83
2019-04-07T05:30:16.838Z,3.80
2019-04-07T05:31:16.291Z,3.85
2019-04-07T05:32:16.871Z,4.08
2019-04-07T05:33:16.570Z,4.21
2019-04-07T05:34:19.568Z,4.44
2019-04-07T05:35:17.539Z,4.62
2019-04-07T05:36:16.701Z,4.83
2019-04-07T05:37:16.689Z,4.98
2019-04-07T05:38:16.278Z,5.19
2019-04-07T05:39:16.535Z,5.38
2019-04-07T05:40:16.604Z,5.41
2019-04-07T05:41:16.181Z,5.50
2019-04-07T05:42:16.661Z,5.41
2019-04-07T05:43:16.176Z,5.63
2019-04-07T05:44:16.759Z,5.71
2019-04-07T05:45:16.134Z,5.96
2019-04-07T05:46:16.213Z,6.19
2019-04-07T05:47:16.507Z,6.33
2019-04-07T05:48:18.526Z,6.29
2019-04-07T05:49:16.924Z,6.33
2019-04-07T05:50:16.653Z,6.33
2019-04-07T05:51:16.067Z,6.36
2019-04-07T05:52:16.202Z,6.43
2019-04-07T05:53:16.047Z,6.32
2019-04-07T05:54:18.067Z,6.36
2019-04-07T05:55:16.020Z,6.36
2019-04-07T05:56:16.464Z,6.58
2019-04-07T05:57:16.000Z,6.69
2019-04-07T05:58:16.137Z,6.77
2019-04-07T05:59:16.066Z,6.95
2019-04-07T06:00:16.956Z,7.05
2019-04-07T06:01:17.094Z,7.20
2019-04-07T06:02:16.711Z,7.38
2019-04-07T06:03:16.496Z,7.62
2019-04-07T06:04:18.398Z,7.66
2019-04-07T06:05:17.449Z,7.67
2019-04-07T06:06:15.923Z,7.81
2019-04-07T06:07:15.897Z,7.94
2019-04-07T06:08:24.726Z,8.02
2019-04-07T06:09:18.895Z,8.14
2019-04-07T06:10:16.601Z,8.21
2019-04-07T06:11:15.985Z,8.32
2019-04-07T06:12:16.106Z,8.36
2019-04-07T06:13:15.826Z,8.37
2019-04-07T06:14:16.969Z,8.35
2019-04-07T06:15:21.567Z,8.36
2019-04-07T06:16:19.941Z,8.32
2019-04-07T06:17:16.270Z,8.51
2019-04-07T06:18:15.762Z,8.48
2019-04-07T06:19:16.081Z,8.51
2019-04-07T06:20:17.034Z,8.53
2019-04-07T06:21:16.245Z,8.54
2019-04-07T06:22:19.891Z,8.63
2019-04-07T06:23:16.991Z,8.75
2019-04-07T06:24:15.709Z,8.88
2019-04-07T06:25:16.638Z,8.96
2019-04-07T06:26:15.673Z,9.10
2019-04-07T06:27:16.962Z,9.23
2019-04-07T06:28:17.221Z,9.32
2019-04-07T06:29:16.095Z,9.40
2019-04-07T06:30:16.474Z,9.31
2019-04-07T06:31:15.692Z,9.40
2019-04-07T06:32:15.623Z,9.58
2019-04-07T06:33:15.695Z,9.63
2019-04-07T06:34:16.175Z,9.67
2019-04-07T06:35:15.914Z,9.63
2019-04-07T06:36:18.664Z,9.71
2019-04-07T06:37:15.549Z,9.71
2019-04-07T06:38:15.595Z,9.79
2019-04-07T06:39:17.153Z,9.94
2019-04-07T06:40:15.516Z,10.00
2019-04-07T06:41:16.137Z,10.04
2019-04-07T06:42:15.492Z,10.19
2019-04-07T06:43:15.672Z,10.18
2019-04-07T06:44:19.385Z,10.40
2019-04-07T06:45:16.458Z,10.56
2019-04-07T06:46:16.066Z,10.59
2019-04-07T06:47:17.735Z,10.74
2019-04-07T06:48:15.428Z,10.84
2019-04-07T06:49:15.418Z,10.88
2019-04-07T06:50:15.982Z,11.01
2019-04-07T06:51:16.099Z,11.16
2019-04-07T06:52:15.424Z,11.24
2019-04-07T06:53:18.600Z,11.49
2019-04-07T06:54:18.561Z,11.53
2019-04-07T06:55:16.346Z,11.64
2019-04-07T06:56:15.469Z,11.80
2019-04-07T06:57:15.456Z,11.86
2019-04-07T06:58:15.493Z,12.19
2019-04-07T06:59:16.550Z,12.29
2019-04-07T07:00:17.496Z,12.29
2019-04-07T07:01:16.625Z,12.37
2019-04-07T07:02:15.293Z,12.30
2019-04-07T07:03:15.830Z,12.45
2019-04-07T07:04:15.685Z,12.82
2019-04-07T07:05:15.668Z,13.06
2019-04-07T07:06:17.375Z,12.97
2019-04-07T07:07:16.780Z,13.00
2019-04-07T07:08:19.420Z,12.82
2019-04-07T07:09:16.574Z,13.17
2019-04-07T07:10:25.933Z,13.32
2019-04-07T07:11:27.578Z,13.43
2019-04-07T07:12:22.513Z,13.59
2019-04-07T07:13:28.330Z,13.61
2019-04-07T07:14:29.998Z,13.58
2019-04-07T07:15:16.118Z,13.87
2019-04-07T07:16:17.034Z,14.12
2019-04-07T07:17:16.974Z,14.38
2019-04-07T07:18:15.446Z,14.54
2019-04-07T07:19:15.225Z,14.83
2019-04-07T07:20:15.694Z,14.98
2019-04-07T07:21:15.340Z,15.08
2019-04-07T07:22:16.574Z,15.05
2019-04-07T07:23:15.791Z,15.17
2019-04-07T07:24:16.451Z,15.23
2019-04-07T07:25:16.010Z,15.33
2019-04-07T07:26:15.014Z,15.49
2019-04-07T07:27:15.433Z,15.61
2019-04-07T07:28:15.049Z,15.92
2019-04-07T07:29:16.449Z,15.74
2019-04-07T07:30:17.476Z,15.82
2019-04-07T07:31:15.481Z,15.93
2019-04-07T07:32:14.952Z,15.94
2019-04-07T07:33:14.948Z,16.22
2019-04-07T07:34:15.573Z,16.34
2019-04-07T07:35:16.481Z,16.58
2019-04-07T07:36:17.375Z,16.58
2019-04-07T07:37:14.996Z,16.56
2019-04-07T07:38:14.923Z,16.44
2019-04-07T07:39:14.866Z,16.56
2019-04-07T07:40:16.600Z,16.85
2019-04-07T07:41:17.221Z,16.93
2019-04-07T07:42:14.870Z,16.98
2019-04-07T07:43:14.827Z,16.93
2019-04-07T07:44:15.538Z,17.13
2019-04-07T07:45:15.612Z,17.28
2019-04-07T07:46:18.174Z,17.47
2019-04-07T07:47:17.625Z,17.63
2019-04-07T07:48:14.749Z,17.71
2019-04-07T07:49:14.842Z,17.70
2019-04-07T07:50:15.377Z,17.88
2019-04-07T07:51:15.389Z,18.19
2019-04-07T07:52:18.561Z,18.37
2019-04-07T07:53:15.816Z,18.46
2019-04-07T07:54:15.980Z,18.25
2019-04-07T07:55:15.097Z,18.02
2019-04-07T07:56:14.658Z,18.27
2019-04-07T07:57:14.652Z,18.52
2019-04-07T07:58:14.705Z,18.59
2019-04-07T07:59:14.645Z,18.73
2019-04-07T08:00:14.630Z,18.76
2019-04-07T08:01:15.697Z,18.79
2019-04-07T08:02:16.803Z,18.31
2019-04-07T08:03:14.667Z,18.24
2019-04-07T08:04:15.212Z,18.72
2019-04-07T08:05:14.557Z,18.39
2019-04-07T08:06:15.057Z,18.09
2019-04-07T08:07:16.473Z,17.84
2019-04-07T08:08:15.665Z,17.87
2019-04-07T08:09:16.437Z,17.59
2019-04-07T08:10:15.874Z,17.99
2019-04-07T08:11:16.479Z,18.03
2019-04-07T08:12:15.234Z,18.29
2019-04-07T08:13:14.584Z,18.54
2019-04-07T08:14:16.673Z,19.17
2019-04-07T08:15:14.444Z,19.28
2019-04-07T08:16:15.178Z,19.43
2019-04-07T08:17:14.814Z,19.54
2019-04-07T08:18:14.483Z,19.35
2019-04-07T08:19:14.398Z,19.48
2019-04-07T08:20:15.254Z,19.18
2019-04-07T08:21:16.574Z,19.21
2019-04-07T08:22:26.537Z,19.28
2019-04-07T08:23:15.609Z,18.95
2019-04-07T08:24:18.530Z,18.61
2019-04-07T08:25:14.330Z,18.64
2019-04-07T08:26:14.676Z,18.27
2019-04-07T08:27:14.963Z,18.34
2019-04-07T08:28:14.710Z,18.77
2019-04-07T08:29:14.711Z,18.91
2019-04-07T08:30:14.275Z,18.58
2019-04-07T08:31:17.780Z,18.98
2019-04-07T08:32:15.330Z,19.06
2019-04-07T08:33:14.718Z,19.17
2019-04-07T08:34:14.322Z,19.28
2019-04-07T08:35:14.370Z,19.86
2019-04-07T08:36:14.955Z,20.18
2019-04-07T08:37:15.215Z,20.10
2019-04-07T08:38:18.620Z,20.09
2019-04-07T08:39:23.758Z,20.25
2019-04-07T08:40:15.273Z,20.50
2019-04-07T08:41:15.874Z,20.13
2019-04-07T08:42:18.608Z,20.28
2019-04-07T08:43:19.605Z,20.47
2019-04-07T08:44:15.118Z,20.98
2019-04-07T08:45:14.556Z,21.01
2019-04-07T08:46:14.098Z,21.06
2019-04-07T08:47:19.156Z,21.64
2019-04-07T08:48:18.253Z,21.19
2019-04-07T08:49:15.124Z,20.25
2019-04-07T08:50:15.111Z,19.63
2019-04-07T08:51:14.841Z,19.86
2019-04-07T08:52:14.029Z,19.93
2019-04-07T08:53:14.798Z,20.24
2019-04-07T08:54:17.601Z,20.08
2019-04-07T08:55:13.994Z,19.78
2019-04-07T08:56:13.985Z,20.05
2019-04-07T08:57:14.136Z,19.65
2019-04-07T08:58:23.574Z,19.50
2019-04-07T08:59:17.034Z,19.69
2019-04-07T09:00:17.271Z,19.79
2019-04-07T09:01:14.277Z,19.53
2019-04-07T09:02:14.082Z,19.35
2019-04-07T09:03:15.928Z,19.50
2019-04-07T09:04:16.532Z,19.53
2019-04-07T09:05:13.959Z,19.24
2019-04-07T09:06:13.880Z,19.31
2019-04-07T09:07:14.110Z,19.61
2019-04-07T09:08:13.878Z,19.86
2019-04-07T09:09:14.059Z,19.76
2019-04-07T09:10:17.049Z,19.75
2019-04-07T09:11:14.612Z,19.66
2019-04-07T09:12:14.054Z,19.70
2019-04-07T09:13:13.801Z,19.58
2019-04-07T09:14:16.033Z,19.54
2019-04-07T09:15:13.784Z,19.68
2019-04-07T09:16:16.220Z,19.65
2019-04-07T09:17:13.830Z,19.58
2019-04-07T09:18:15.241Z,19.66
2019-04-07T09:19:13.867Z,19.35
2019-04-07T09:20:13.741Z,19.35
2019-04-07T09:21:15.190Z,19.55
2019-04-07T09:22:13.703Z,19.53
2019-04-07T09:23:13.760Z,19.83
2019-04-07T09:24:13.679Z,20.08
2019-04-07T09:25:13.778Z,20.21
2019-04-07T09:26:13.984Z,20.15
2019-04-07T09:27:17.148Z,19.86
2019-04-07T09:28:14.703Z,20.15
2019-04-07T09:29:13.621Z,21.05
2019-04-07T09:30:14.179Z,20.65
2019-04-07T09:31:14.350Z,20.91
2019-04-07T09:32:13.588Z,20.18
2019-04-07T09:33:13.707Z,20.56
2019-04-07T09:34:13.655Z,20.81
2019-04-07T09:35:13.551Z,21.35
2019-04-07T09:36:13.540Z,21.17
2019-04-07T09:37:13.533Z,21.06
2019-04-07T09:38:14.277Z,20.91
2019-04-07T09:39:14.400Z,20.68
2019-04-07T09:40:16.444Z,20.86
2019-04-07T09:41:14.362Z,20.71
2019-04-07T09:42:13.752Z,20.15
2019-04-07T09:43:14.546Z,20.13
2019-04-07T09:44:13.615Z,20.00
2019-04-07T09:45:13.839Z,20.86
2019-04-07T09:46:13.706Z,21.79
2019-04-07T09:47:16.085Z,22.19
2019-04-07T09:48:13.742Z,22.34
2019-04-07T09:49:13.562Z,22.59
2019-04-07T09:50:13.388Z,22.10
2019-04-07T09:51:13.546Z,22.16
2019-04-07T09:52:14.925Z,22.10
2019-04-07T09:53:13.793Z,22.19
2019-04-07T09:54:13.401Z,21.67
2019-04-07T09:55:14.095Z,20.76
2019-04-07T09:56:13.325Z,21.19
2019-04-07T09:57:14.091Z,21.26
2019-04-07T09:58:13.619Z,21.02
2019-04-07T09:59:16.805Z,21.45
2019-04-07T10:00:14.525Z,21.21
2019-04-07T10:01:17.586Z,21.29
2019-04-07T10:02:14.621Z,21.21
2019-04-07T10:03:15.143Z,21.14
2019-04-07T10:04:14.257Z,21.21
2019-04-07T10:05:13.221Z,21.20
2019-04-07T10:06:13.227Z,20.96
2019-04-07T10:07:15.329Z,20.86
2019-04-07T10:08:13.938Z,20.49
2019-04-07T10:09:13.176Z,20.38
2019-04-07T10:10:14.794Z,20.49
2019-04-07T10:11:14.041Z,20.65
2019-04-07T10:12:13.978Z,20.39
2019-04-07T10:13:13.535Z,20.23
2019-04-07T10:14:13.815Z,20.69
2019-04-07T10:15:13.112Z,21.39
2019-04-07T10:16:13.290Z,22.01
2019-04-07T10:17:13.089Z,21.91
2019-04-07T10:18:13.233Z,21.27
2019-04-07T10:19:13.136Z,21.26
2019-04-07T10:20:13.123Z,21.78
2019-04-07T10:21:13.043Z,21.48
2019-04-07T10:22:13.872Z,21.45
2019-04-07T10:23:13.025Z,21.57
2019-04-07T10:24:13.130Z,22.10
2019-04-07T10:25:13.002Z,22.60
2019-04-07T10:26:13.123Z,22.41
2019-04-07T10:27:12.977Z,22.19
2019-04-07T10:28:13.745Z,22.35
2019-04-07T10:29:12.959Z,21.92
2019-04-07T10:30:13.490Z,22.14
2019-04-07T10:31:13.727Z,22.65
2019-04-07T10:32:13.641Z,22.62
2019-04-07T10:33:13.355Z,22.02
2019-04-07T10:34:13.432Z,21.69
2019-04-07T10:35:13.633Z,21.75
2019-04-07T10:36:13.630Z,21.91
2019-04-07T10:37:13.392Z,21.74
2019-04-07T10:38:12.868Z,21.78
2019-04-07T10:39:13.042Z,22.06
2019-04-07T10:40:19.467Z,22.22
2019-04-07T10:41:14.076Z,22.10
2019-04-07T10:42:13.656Z,22.37
2019-04-07T10:43:12.826Z,22.75
2019-04-07T10:44:12.819Z,22.94
2019-04-07T10:45:12.782Z,22.78
2019-04-07T10:46:13.519Z,22.99
2019-04-07T10:47:12.831Z,22.09
2019-04-07T10:48:13.451Z,22.23
2019-04-07T10:49:12.838Z,22.10
2019-04-07T10:50:12.727Z,22.47
2019-04-07T10:51:12.721Z,22.25
2019-04-07T10:52:12.706Z,21.95
2019-04-07T10:53:12.764Z,21.88
2019-04-07T10:54:12.686Z,21.98
2019-04-07T10:55:13.050Z,21.88
2019-04-07T10:56:12.662Z,22.29
2019-04-07T10:57:12.717Z,22.06
2019-04-07T10:58:12.641Z,22.59
2019-04-07T10:59:12.700Z,22.96
2019-04-07T11:00:13.439Z,23.19
2019-04-07T11:01:12.633Z,22.83
2019-04-07T11:02:13.412Z,22.07
2019-04-07T11:03:13.179Z,21.69
2019-04-07T11:04:12.797Z,21.76
2019-04-07T11:05:13.068Z,21.39
2019-04-07T11:06:13.845Z,20.39
2019-04-07T11:07:12.973Z,21.51
2019-04-07T11:08:12.532Z,22.09
2019-04-07T11:09:13.226Z,21.99
2019-04-07T11:10:12.606Z,22.06
2019-04-07T11:11:13.280Z,21.78
2019-04-07T11:12:12.494Z,20.34
2019-04-07T11:13:13.732Z,20.56
2019-04-07T11:14:13.345Z,21.50
2019-04-07T11:15:12.562Z,21.61
2019-04-07T11:16:12.778Z,21.09
2019-04-07T11:17:12.580Z,21.32
2019-04-07T11:18:12.426Z,21.75
2019-04-07T11:19:12.977Z,22.04
2019-04-07T11:20:13.233Z,21.92
2019-04-07T11:21:13.069Z,22.01
2019-04-07T11:22:12.384Z,22.44
2019-04-07T11:23:13.063Z,22.65
2019-04-07T11:24:12.364Z,22.12
2019-04-07T11:25:13.001Z,21.90
2019-04-07T11:26:12.445Z,22.12
2019-04-07T11:27:13.109Z,22.64
2019-04-07T11:28:12.320Z,22.10
2019-04-07T11:29:12.377Z,22.25
2019-04-07T11:30:12.292Z,22.43
2019-04-07T11:31:12.281Z,22.43
2019-04-07T11:32:12.277Z,22.54
2019-04-07T11:33:12.260Z,22.75
2019-04-07T11:34:12.932Z,23.15
2019-04-07T11:35:12.307Z,23.08
2019-04-07T11:36:12.226Z,23.26
2019-04-07T11:37:12.970Z,23.05
2019-04-07T11:38:12.206Z,23.38
2019-04-07T11:39:12.199Z,23.43
2019-04-07T11:40:12.814Z,22.47
2019-04-07T11:41:12.440Z,22.43
2019-04-07T11:42:13.031Z,22.80
2019-04-07T11:43:12.152Z,22.89
2019-04-07T11:44:12.810Z,23.08
2019-04-07T11:45:12.129Z,23.22
2019-04-07T11:46:12.120Z,23.02
2019-04-07T11:47:12.176Z,22.94
2019-04-07T11:48:12.198Z,23.34
2019-04-07T11:49:13.440Z,23.23
2019-04-07T11:50:12.501Z,23.38
2019-04-07T11:51:12.933Z,22.84
2019-04-07T11:52:12.537Z,22.87
2019-04-07T11:53:12.130Z,23.26
2019-04-07T11:54:12.051Z,23.71
2019-04-07T11:55:12.081Z,24.10
2019-04-07T11:56:12.025Z,23.52
2019-04-07T11:57:12.000Z,23.22
2019-04-07T11:58:15.946Z,23.38
2019-04-07T11:59:13.439Z,23.14
2019-04-07T12:00:12.442Z,23.75
2019-04-07T12:01:14.399Z,24.13
2019-04-07T12:02:12.565Z,24.08
2019-04-07T12:03:12.010Z,23.02
2019-04-07T12:04:14.345Z,22.52
2019-04-07T12:05:12.027Z,22.52
2019-04-07T12:06:14.260Z,22.35
2019-04-07T12:07:12.724Z,22.78
2019-04-07T12:08:11.904Z,23.05
2019-04-07T12:09:12.028Z,22.94
2019-04-07T12:10:12.563Z,23.27
2019-04-07T12:11:13.615Z,22.87
2019-04-07T12:12:12.646Z,22.77
2019-04-07T12:13:12.290Z,22.43
2019-04-07T12:14:15.060Z,22.34
2019-04-07T12:15:12.041Z,22.34
2019-04-07T12:16:11.795Z,22.96
2019-04-07T12:17:13.485Z,22.47
2019-04-07T12:18:16.228Z,22.69
2019-04-07T12:19:12.758Z,22.97
2019-04-07T12:20:11.751Z,23.11
2019-04-07T12:21:20.086Z,23.61
2019-04-07T12:22:14.193Z,23.01
2019-04-07T12:23:16.278Z,22.29
2019-04-07T12:24:13.584Z,22.53
2019-04-07T12:25:12.479Z,22.80
2019-04-07T12:26:11.711Z,23.23
2019-04-07T12:27:12.649Z,23.23
2019-04-07T12:28:14.636Z,22.47
2019-04-07T12:29:12.659Z,21.45
2019-04-07T12:30:11.643Z,22.16
2019-04-07T12:31:11.926Z,22.78
2019-04-07T12:32:11.702Z,22.68
2019-04-07T12:33:12.222Z,22.20
2019-04-07T12:34:14.121Z,20.96
2019-04-07T12:35:11.888Z,22.10
2019-04-07T12:36:11.819Z,22.72
2019-04-07T12:37:11.564Z,23.62
2019-04-07T12:38:12.520Z,24.00
2019-04-07T12:39:15.666Z,23.62
2019-04-07T12:40:11.601Z,23.42
2019-04-07T12:41:19.116Z,23.22
2019-04-07T12:42:13.247Z,22.22
2019-04-07T12:43:13.994Z,21.30
2019-04-07T12:44:11.571Z,21.94
2019-04-07T12:45:12.313Z,22.80
2019-04-07T12:46:11.554Z,22.32
2019-04-07T12:47:12.167Z,23.17
2019-04-07T12:48:11.447Z,23.42
2019-04-07T12:49:12.179Z,23.86
2019-04-07T12:50:15.474Z,24.01
2019-04-07T12:51:12.487Z,23.85
2019-04-07T12:52:11.737Z,23.26
2019-04-07T12:53:12.255Z,23.20
2019-04-07T12:54:11.812Z,22.94
2019-04-07T12:55:16.038Z,22.92
2019-04-07T12:56:13.290Z,23.38
2019-04-07T12:57:12.156Z,23.79
2019-04-07T12:58:11.653Z,23.98
2019-04-07T12:59:14.283Z,23.46
2019-04-07T13:00:11.389Z,23.40
2019-04-07T13:01:17.576Z,23.02
2019-04-07T13:02:12.529Z,23.38
2019-04-07T13:03:11.653Z,22.02
2019-04-07T13:04:12.162Z,21.81
2019-04-07T13:05:12.109Z,20.80